createdAt,value
2022-12-11T00:04:45.239Z,97853.35
2022-12-11T00:09:52.741Z,97846.23
2022-12-11T00:15:03.529Z,97844.47
2022-12-11T00:20:13.340Z,97839.38
2022-12-11T00:25:20.709Z,97838.58
2022-12-11T00:30:28.039Z,97828.15
2022-12-11T00:35:33.768Z,97818.66
2022-12-11T00:40:41.321Z,97819.07
2022-12-11T00:45:50.391Z,97811.50
2022-12-11T00:50:57.618Z,97805.69
2022-12-11T00:56:03.388Z,97803.52
2022-12-11T01:01:13.678Z,97804.27
2022-12-11T01:06:23.019Z,97801.96
2022-12-11T01:11:40.077Z,97799.67
2022-12-11T01:16:48.308Z,97806.39
2022-12-11T01:21:55.984Z,97804.00
2022-12-11T01:32:25.238Z,97804.60
2022-12-11T01:37:32.472Z,97802.80
2022-12-11T01:42:46.781Z,97798.41
2022-12-11T01:47:57.075Z,97793.41
2022-12-11T01:53:08.595Z,97797.51
2022-12-11T01:58:17.942Z,97797.47
2022-12-11T02:03:25.777Z,97792.45
2022-12-11T02:08:37.924Z,97786.10
2022-12-11T02:13:53.875Z,97783.23
2022-12-11T02:19:09.561Z,97775.51
2022-12-11T02:24:49.366Z,97769.95
2022-12-11T02:30:03.186Z,97773.58
2022-12-11T02:35:18.724Z,97770.85
2022-12-11T02:40:31.517Z,97766.45
2022-12-11T02:45:43.167Z,97762.19
2022-12-11T02:50:53.907Z,97764.80
2022-12-11T02:56:09.706Z,97755.99
2022-12-11T03:01:18.222Z,97753.85
2022-12-11T03:06:30.285Z,97756.83
2022-12-11T03:11:41.281Z,97762.39
2022-12-11T03:17:04.000Z,97758.27
2022-12-11T03:22:19.223Z,97749.39
2022-12-11T03:27:36.106Z,97748.36
2022-12-11T03:32:49.486Z,97738.50
2022-12-11T03:37:59.353Z,97731.41
2022-12-11T03:43:09.509Z,97726.54
2022-12-11T03:48:26.216Z,97720.86
2022-12-11T03:53:39.928Z,97714.86
2022-12-11T03:58:47.837Z,97711.19
2022-12-11T04:03:57.973Z,97713.11
2022-12-11T04:09:07.137Z,97714.70
2022-12-11T04:14:35.186Z,97720.27
2022-12-11T04:20:00.529Z,97707.14
2022-12-11T04:25:10.370Z,97706.77
2022-12-11T04:30:21.267Z,97707.55
2022-12-11T04:35:28.888Z,97709.05
2022-12-11T04:40:36.634Z,97710.80
2022-12-11T04:45:44.298Z,97710.11
2022-12-11T04:50:51.860Z,97708.75
2022-12-11T04:55:59.739Z,97707.52
2022-12-11T05:01:12.026Z,97704.20
2022-12-11T05:06:19.757Z,97700.77
2022-12-11T05:11:27.074Z,97700.77
2022-12-11T05:16:34.673Z,97693.13
2022-12-11T05:21:42.848Z,97690.39
2022-12-11T05:26:50.388Z,97682.96
2022-12-11T05:31:57.611Z,97687.51
2022-12-11T05:37:09.626Z,97677.78
2022-12-11T05:42:17.334Z,97678.73
2022-12-11T05:47:22.904Z,97676.88
2022-12-11T05:52:30.316Z,97674.25
2022-12-11T05:57:37.547Z,97667.08
2022-12-11T06:02:43.260Z,97656.93
2022-12-11T06:07:51.797Z,97648.55
2022-12-11T06:12:59.431Z,97650.93
2022-12-11T06:18:07.438Z,97654.23
2022-12-11T06:23:15.524Z,97664.56
2022-12-11T06:28:22.791Z,97668.17
2022-12-11T06:33:28.865Z,97674.91
2022-12-11T06:38:36.754Z,97678.24
2022-12-11T06:43:46.257Z,97688.70
2022-12-11T06:48:53.517Z,97687.79
2022-12-11T06:53:59.045Z,97693.52
2022-12-11T06:59:07.777Z,97689.19
2022-12-11T07:04:17.055Z,97689.73
2022-12-11T07:09:24.866Z,97684.51
2022-12-11T07:14:32.784Z,97689.18
2022-12-11T07:19:40.915Z,97692.17
2022-12-11T07:24:48.920Z,97688.83
2022-12-11T07:29:56.551Z,97694.19
2022-12-11T07:35:03.971Z,97694.80
2022-12-11T07:40:14.318Z,97688.74
2022-12-11T07:45:21.612Z,97696.27
2022-12-11T07:50:27.478Z,97697.71
2022-12-11T07:55:35.108Z,97700.55
2022-12-11T08:00:42.569Z,97698.42
2022-12-11T08:05:51.595Z,97697.64
2022-12-11T08:11:02.244Z,97705.67
2022-12-11T08:16:13.268Z,97704.76
2022-12-11T08:21:22.830Z,97703.80
2022-12-11T08:26:31.615Z,97698.78
2022-12-11T08:31:39.885Z,97702.73
2022-12-11T08:36:47.680Z,97708.80
2022-12-11T08:41:55.149Z,97709.34
2022-12-11T08:47:02.569Z,97701.09
2022-12-11T08:52:08.345Z,97701.98
2022-12-11T08:57:16.477Z,97701.88
2022-12-11T09:02:23.798Z,97704.55
2022-12-11T09:07:31.098Z,97701.48
2022-12-11T09:12:37.125Z,97710.80
2022-12-11T09:17:49.177Z,97710.26
2022-12-11T09:22:56.859Z,97713.75
2022-12-11T09:28:04.223Z,97714.90
2022-12-11T09:33:12.052Z,97716.40
2022-12-11T09:38:20.385Z,97720.38
2022-12-11T09:43:40.975Z,97714.36
2022-12-11T09:48:52.718Z,97700.40
2022-12-11T09:54:04.944Z,97701.60
2022-12-11T09:59:39.297Z,97686.38
2022-12-11T10:04:59.312Z,97682.80
2022-12-11T10:10:18.743Z,97686.11
2022-12-11T10:15:37.074Z,97678.71
2022-12-11T10:20:45.769Z,97678.52
2022-12-11T10:25:59.865Z,97685.86
2022-12-11T10:31:15.182Z,97684.92
2022-12-11T10:36:28.075Z,97684.67
2022-12-11T10:41:40.987Z,97683.96
2022-12-11T10:46:49.968Z,97684.58
2022-12-11T10:52:01.929Z,97681.55
2022-12-11T10:57:11.532Z,97682.54
2022-12-11T11:02:27.065Z,97679.81
2022-12-11T11:07:34.653Z,97668.86
2022-12-11T11:12:47.407Z,97673.29
2022-12-11T11:17:56.905Z,97674.79
2022-12-11T11:23:15.585Z,97671.33
2022-12-11T11:28:26.637Z,97665.21
2022-12-11T11:33:36.730Z,97658.60
2022-12-11T11:38:50.691Z,97665.71
2022-12-11T11:44:00.871Z,97671.90
2022-12-11T11:49:15.373Z,97671.89
2022-12-11T11:54:32.346Z,97675.97
2022-12-11T11:59:47.739Z,97674.05
2022-12-11T12:04:55.593Z,97670.76
2022-12-11T12:10:13.017Z,97667.86
2022-12-11T12:15:30.859Z,97667.72
2022-12-11T12:20:40.201Z,97666.33
2022-12-11T12:26:02.477Z,97670.45
2022-12-11T12:31:24.717Z,97668.66
2022-12-11T12:36:41.241Z,97668.19
2022-12-11T12:42:12.953Z,97674.67
2022-12-11T12:47:21.629Z,97670.56
2022-12-11T12:52:33.249Z,97671.91
2022-12-11T12:57:43.934Z,97670.30
2022-12-11T13:02:54.005Z,97672.19
2022-12-11T13:08:03.970Z,97681.49
2022-12-11T13:13:36.447Z,97691.17
2022-12-11T13:18:47.625Z,97694.63
2022-12-11T13:23:55.199Z,97708.81
2022-12-11T13:29:04.444Z,97721.27
2022-12-11T13:34:22.226Z,97719.17
2022-12-11T13:39:31.766Z,97722.45
2022-12-11T13:44:46.066Z,97724.84
2022-12-11T13:58:00.643Z,97726.18
2022-12-11T14:03:09.406Z,97720.84
2022-12-11T14:08:25.728Z,97719.77
2022-12-11T14:13:37.021Z,97716.25
2022-12-11T14:18:45.293Z,97725.76
2022-12-11T14:23:57.736Z,97725.42
2022-12-11T14:29:06.282Z,97724.27
2022-12-11T14:34:19.589Z,97725.56
2022-12-11T14:39:31.328Z,97724.77
2022-12-11T14:44:50.802Z,97730.68
2022-12-11T14:50:04.169Z,97733.43
2022-12-11T14:55:17.522Z,97732.85
2022-12-11T15:00:30.785Z,97731.98
2022-12-11T15:05:49.716Z,97734.58
2022-12-11T15:11:09.753Z,97731.84
2022-12-11T15:16:17.665Z,97733.05
2022-12-11T15:21:32.716Z,97744.54
2022-12-11T15:26:46.052Z,97753.33
2022-12-11T15:32:02.568Z,97758.08
2022-12-11T15:37:22.078Z,97765.03
2022-12-11T15:42:32.532Z,97779.36
2022-12-11T15:47:39.940Z,97786.33
2022-12-11T15:52:47.664Z,97800.13
2022-12-11T15:57:57.255Z,97805.08
2022-12-11T16:03:04.813Z,97804.20
2022-12-11T16:08:15.346Z,97803.65
2022-12-11T16:13:23.037Z,97811.59
2022-12-11T16:18:30.413Z,97805.66
2022-12-11T16:23:37.596Z,97810.14
2022-12-11T16:28:43.772Z,97808.80
2022-12-11T16:33:51.226Z,97803.67
2022-12-11T16:38:58.422Z,97804.00
2022-12-11T16:44:04.326Z,97801.52
2022-12-11T16:49:11.653Z,97797.90
2022-12-11T16:54:17.519Z,97797.16
2022-12-11T16:59:24.787Z,97801.52
2022-12-11T17:04:32.839Z,97790.83
2022-12-11T17:09:40.269Z,97793.96
2022-12-11T17:14:47.770Z,97805.08
2022-12-11T17:19:55.369Z,97807.53
2022-12-11T17:25:02.867Z,97807.83
2022-12-11T17:30:13.620Z,97809.11
2022-12-11T17:35:21.287Z,97811.21
2022-12-11T17:40:28.763Z,97808.71
2022-12-11T17:45:39.165Z,97809.57
2022-12-11T17:50:48.654Z,97818.11
2022-12-11T17:55:57.140Z,97823.94
2022-12-11T18:01:09.960Z,97826.76
2022-12-11T18:06:18.592Z,97826.52
2022-12-11T18:11:26.934Z,97833.30
2022-12-11T18:16:37.007Z,97835.14
2022-12-11T18:21:45.973Z,97831.77
2022-12-11T18:26:53.218Z,97830.21
2022-12-11T18:31:59.140Z,97833.95
2022-12-11T18:37:07.220Z,97826.95
2022-12-11T18:47:42.838Z,97829.25
2022-12-11T18:52:53.492Z,97825.29
2022-12-11T18:58:00.744Z,97831.30
2022-12-11T19:03:06.778Z,97834.52
2022-12-11T19:08:16.540Z,97837.02
2022-12-11T19:13:23.935Z,97837.82
2022-12-11T19:18:31.155Z,97828.50
2022-12-11T19:23:39.042Z,97822.89
2022-12-11T19:28:46.864Z,97816.60
2022-12-11T19:33:54.177Z,97817.16
2022-12-11T19:39:05.058Z,97817.48
2022-12-11T19:44:17.363Z,97816.19
2022-12-11T19:49:24.665Z,97812.70
2022-12-11T19:54:32.690Z,97813.35
2022-12-11T19:59:39.973Z,97810.80
2022-12-11T20:04:45.637Z,97808.31
2022-12-11T20:09:53.098Z,97804.76
2022-12-11T20:15:00.509Z,97806.64
2022-12-11T20:20:10.039Z,97809.33
2022-12-11T20:25:17.634Z,97811.54
2022-12-11T20:30:26.156Z,97814.88
2022-12-11T20:35:34.799Z,97821.84
2022-12-11T20:40:42.607Z,97823.95
2022-12-11T20:45:52.206Z,97826.08
2022-12-11T20:51:02.685Z,97823.78
2022-12-11T20:56:15.321Z,97821.78
2022-12-11T21:01:24.704Z,97819.04
2022-12-11T21:06:35.111Z,97815.23
2022-12-11T21:11:43.337Z,97820.08
2022-12-11T21:20:24.629Z,97826.51
2022-12-11T21:25:32.045Z,97829.92
2022-12-11T21:30:41.458Z,97835.37
2022-12-11T21:35:57.809Z,97834.49
2022-12-11T21:41:15.794Z,97836.61
2022-12-11T21:46:25.883Z,97841.58
2022-12-11T21:51:39.372Z,97846.67
2022-12-11T21:56:50.122Z,97853.57
2022-12-11T22:01:57.898Z,97854.39
2022-12-11T22:07:05.412Z,97853.66
2022-12-11T22:12:11.358Z,97855.23
2022-12-11T22:17:19.383Z,97852.87
2022-12-11T22:22:28.016Z,97848.29
2022-12-11T22:27:36.028Z,97851.29
2022-12-11T22:32:44.025Z,97837.69
2022-12-11T22:37:52.644Z,97831.45
2022-12-11T22:43:00.281Z,97830.34
2022-12-11T22:48:09.324Z,97827.73
2022-12-11T22:53:17.337Z,97830.43
2022-12-11T22:58:24.847Z,97833.48
2022-12-11T23:03:32.513Z,97834.79
2022-12-11T23:08:40.431Z,97842.64
2022-12-11T23:13:48.083Z,97840.14
2022-12-11T23:18:56.367Z,97833.95
2022-12-11T23:24:05.459Z,97833.55
2022-12-11T23:29:12.967Z,97834.04
2022-12-11T23:34:20.130Z,97837.84
2022-12-11T23:39:27.658Z,97839.33
2022-12-11T23:44:34.873Z,97843.66
2022-12-11T23:49:42.923Z,97848.65
2022-12-11T23:54:50.230Z,97839.21
2022-12-11T23:59:55.765Z,97840.27
